createdAt,value
2022-11-30T00:00:39.044Z,1.95
2022-11-30T00:03:09.193Z,1.98
2022-11-30T00:05:39.178Z,1.80
2022-11-30T00:08:11.508Z,1.90
2022-11-30T00:10:41.545Z,1.70
2022-11-30T00:13:11.550Z,1.65
2022-11-30T00:15:41.696Z,1.98
2022-11-30T00:18:11.903Z,1.95
2022-11-30T00:20:41.899Z,2.25
2022-11-30T00:23:12.409Z,2.30
2022-11-30T00:25:42.467Z,2.28
2022-11-30T00:28:12.934Z,2.25
2022-11-30T00:30:43.023Z,2.35
2022-11-30T00:33:13.090Z,2.13
2022-11-30T00:35:42.760Z,2.50
2022-11-30T00:38:12.708Z,2.45
2022-11-30T00:40:42.322Z,2.50
2022-11-30T00:43:12.478Z,2.55
2022-11-30T00:45:45.682Z,2.60
2022-11-30T00:48:18.842Z,2.30
2022-11-30T00:50:50.514Z,2.38
2022-11-30T00:53:20.491Z,2.50
2022-11-30T00:55:50.235Z,2.55
2022-11-30T00:58:20.848Z,2.97
2022-11-30T01:00:50.539Z,2.83
2022-11-30T01:03:20.032Z,3.08
2022-11-30T01:05:49.532Z,2.65
2022-11-30T01:08:19.512Z,3.10
2022-11-30T01:10:54.484Z,3.03
2022-11-30T01:13:25.038Z,3.03
2022-11-30T01:15:54.765Z,3.10
2022-11-30T01:18:24.651Z,3.28
2022-11-30T01:20:54.260Z,3.88
2022-11-30T01:23:23.750Z,2.97
2022-11-30T01:25:57.125Z,3.08
2022-11-30T01:28:28.252Z,3.50
2022-11-30T01:31:01.131Z,4.28
2022-11-30T01:33:30.776Z,3.90
2022-11-30T01:36:01.446Z,4.00
2022-11-30T01:38:41.566Z,3.67
2022-11-30T01:41:12.006Z,4.35
2022-11-30T01:43:47.397Z,3.67
2022-11-30T01:46:20.365Z,3.95
2022-11-30T01:48:51.318Z,4.35
2022-11-30T01:51:22.024Z,4.30
2022-11-30T01:53:52.782Z,3.70
2022-11-30T01:56:22.678Z,3.70
2022-11-30T01:58:52.703Z,4.20
2022-11-30T02:01:22.374Z,4.35
2022-11-30T02:04:01.932Z,3.85
2022-11-30T02:06:31.476Z,4.00
2022-11-30T02:09:01.485Z,3.28
2022-11-30T02:11:33.349Z,4.45
2022-11-30T02:14:12.862Z,4.15
2022-11-30T02:16:43.301Z,4.43
2022-11-30T02:19:16.067Z,4.68
2022-11-30T02:22:26.700Z,4.20
2022-11-30T02:25:10.792Z,4.30
2022-11-30T02:28:01.971Z,4.20
2022-11-30T02:30:32.055Z,4.57
2022-11-30T02:33:21.154Z,4.03
2022-11-30T02:35:55.115Z,4.50
2022-11-30T02:38:25.989Z,4.60
2022-11-30T02:40:55.465Z,4.70
2022-11-30T02:43:26.405Z,4.70
2022-11-30T02:46:10.533Z,4.35
2022-11-30T02:48:40.596Z,4.85
2022-11-30T02:51:10.783Z,4.63
2022-11-30T02:53:40.657Z,4.85
2022-11-30T02:56:10.216Z,4.50
2022-11-30T02:58:40.196Z,4.50
2022-11-30T03:01:10.575Z,4.57
2022-11-30T03:03:40.817Z,4.35
2022-11-30T03:06:10.763Z,4.38
2022-11-30T03:08:40.459Z,4.25
2022-11-30T03:11:09.966Z,4.65
2022-11-30T03:13:39.484Z,4.18
2022-11-30T03:16:10.616Z,3.97
2022-11-30T03:18:40.426Z,4.90
2022-11-30T03:21:11.105Z,4.10
2022-11-30T03:23:40.729Z,4.10
2022-11-30T03:26:11.285Z,4.63
2022-11-30T03:28:40.917Z,4.55
2022-11-30T03:31:13.498Z,4.03
2022-11-30T03:33:43.303Z,3.83
2022-11-30T03:36:13.254Z,4.20
2022-11-30T03:38:43.355Z,4.43
2022-11-30T03:41:17.115Z,3.85
2022-11-30T03:46:16.142Z,4.47
2022-11-30T03:48:47.181Z,5.32
2022-11-30T03:51:17.312Z,4.28
2022-11-30T03:53:47.067Z,4.18
2022-11-30T03:56:17.958Z,3.63
2022-11-30T03:58:48.067Z,4.53
2022-11-30T04:01:20.440Z,4.32
2022-11-30T04:03:50.886Z,4.35
2022-11-30T04:06:21.525Z,4.40
2022-11-30T04:08:51.190Z,4.85
2022-11-30T04:11:21.183Z,4.47
2022-11-30T04:13:51.478Z,4.70
2022-11-30T04:16:21.149Z,4.40
2022-11-30T04:18:51.386Z,4.40
2022-11-30T04:21:21.578Z,4.50
2022-11-30T04:23:51.738Z,4.45
2022-11-30T04:26:21.446Z,4.30
2022-11-30T04:28:51.422Z,4.53
2022-11-30T04:31:21.558Z,4.50
2022-11-30T04:33:55.699Z,4.25
2022-11-30T04:36:25.814Z,4.43
2022-11-30T04:38:55.492Z,4.20
2022-11-30T04:41:25.257Z,5.03
2022-11-30T04:43:55.250Z,4.53
2022-11-30T04:46:25.031Z,4.40
2022-11-30T04:48:54.648Z,4.47
2022-11-30T04:51:25.808Z,4.13
2022-11-30T04:53:55.878Z,3.67
2022-11-30T04:56:26.123Z,4.25
2022-11-30T04:59:01.780Z,3.80
2022-11-30T05:01:32.039Z,4.03
2022-11-30T05:04:01.858Z,3.33
2022-11-30T05:06:31.393Z,3.58
2022-11-30T05:09:01.391Z,3.85
2022-11-30T05:11:31.023Z,3.60
2022-11-30T05:14:00.517Z,3.65
2022-11-30T05:16:30.141Z,3.85
2022-11-30T05:18:59.687Z,3.33
2022-11-30T05:21:29.328Z,3.60
2022-11-30T05:23:59.403Z,3.15
2022-11-30T05:26:29.034Z,3.10
2022-11-30T05:28:58.605Z,3.85
2022-11-30T05:31:28.203Z,3.22
2022-11-30T05:33:57.806Z,2.95
2022-11-30T05:36:27.520Z,3.30
2022-11-30T05:38:57.118Z,3.22
2022-11-30T05:41:26.721Z,3.03
2022-11-30T05:43:56.805Z,2.80
2022-11-30T05:46:26.541Z,3.72
2022-11-30T05:48:56.627Z,2.70
2022-11-30T05:51:26.306Z,2.50
2022-11-30T05:53:56.365Z,2.80
2022-11-30T05:56:26.007Z,2.80
2022-11-30T05:58:56.001Z,2.38
2022-11-30T06:01:27.617Z,3.13
2022-11-30T06:03:57.683Z,2.28
2022-11-30T06:06:27.850Z,2.70
2022-11-30T06:08:57.484Z,2.70
2022-11-30T06:11:26.999Z,2.88
2022-11-30T06:13:56.646Z,2.40
2022-11-30T06:16:26.188Z,2.60
2022-11-30T06:18:55.802Z,2.67
2022-11-30T06:21:25.714Z,2.50
2022-11-30T06:23:55.831Z,2.03
2022-11-30T06:26:25.432Z,2.22
2022-11-30T06:28:55.079Z,2.35
2022-11-30T06:31:25.203Z,2.28
2022-11-30T06:33:58.370Z,2.50
2022-11-30T06:36:34.199Z,2.30
2022-11-30T06:39:06.225Z,2.15
2022-11-30T06:41:36.311Z,2.45
2022-11-30T06:44:10.128Z,2.20
2022-11-30T06:46:39.793Z,2.10
2022-11-30T06:49:09.801Z,1.98
2022-11-30T06:51:40.822Z,1.92
2022-11-30T06:54:10.381Z,2.33
2022-11-30T06:56:40.361Z,2.25
2022-11-30T06:59:10.160Z,1.88
2022-11-30T07:01:39.620Z,1.85
2022-11-30T07:04:10.422Z,2.10
2022-11-30T07:06:40.478Z,1.90
2022-11-30T07:09:11.355Z,1.88
2022-11-30T07:11:41.724Z,1.90
2022-11-30T07:14:11.779Z,1.88
2022-11-30T07:16:41.663Z,1.52
2022-11-30T07:19:11.716Z,1.85
2022-11-30T07:21:41.339Z,1.60
2022-11-30T07:24:31.088Z,1.50
2022-11-30T07:27:01.427Z,1.40
2022-11-30T07:29:31.460Z,1.70
2022-11-30T07:32:01.605Z,1.38
2022-11-30T07:34:31.721Z,1.27
2022-11-30T07:37:01.896Z,1.67
2022-11-30T07:39:32.667Z,1.58
2022-11-30T07:42:03.148Z,1.40
2022-11-30T07:44:37.365Z,1.25
2022-11-30T07:47:06.985Z,1.17
2022-11-30T07:49:36.954Z,1.30
2022-11-30T07:52:06.605Z,1.50
2022-11-30T07:54:36.798Z,1.10
2022-11-30T07:57:07.130Z,1.20
2022-11-30T07:59:36.848Z,1.30
2022-11-30T08:02:07.162Z,1.30
2022-11-30T08:04:37.083Z,1.40
2022-11-30T08:07:06.655Z,1.42
2022-11-30T08:09:36.841Z,1.50
2022-11-30T08:12:06.781Z,1.42
2022-11-30T08:15:11.064Z,1.60
2022-11-30T08:20:03.062Z,1.55
2022-11-30T08:22:35.785Z,2.30
2022-11-30T08:25:06.751Z,1.63
2022-11-30T08:27:40.579Z,1.60
2022-11-30T08:30:11.960Z,1.40
2022-11-30T08:32:44.326Z,1.50
2022-11-30T08:35:14.215Z,1.30
2022-11-30T08:37:51.678Z,1.50
2022-11-30T08:40:22.202Z,1.40
2022-11-30T08:42:51.840Z,1.88
2022-11-30T08:45:21.754Z,1.40
2022-11-30T08:47:51.347Z,1.42
2022-11-30T08:50:21.431Z,1.70
2022-11-30T08:52:51.084Z,1.50
2022-11-30T08:55:21.038Z,1.42
2022-11-30T08:57:50.860Z,1.67
2022-11-30T09:00:21.683Z,1.50
2022-11-30T09:02:52.722Z,1.55
2022-11-30T09:05:22.953Z,1.98
2022-11-30T09:07:56.539Z,1.75
2022-11-30T09:10:34.732Z,1.63
2022-11-30T09:13:04.876Z,1.77
2022-11-30T09:15:34.656Z,1.98
2022-11-30T09:18:06.078Z,1.88
2022-11-30T09:20:36.768Z,1.92
2022-11-30T09:23:06.987Z,1.52
2022-11-30T09:25:37.152Z,1.70
2022-11-30T09:28:12.462Z,1.60
2022-11-30T09:30:43.794Z,1.80
2022-11-30T09:33:13.434Z,1.70
2022-11-30T09:35:43.006Z,2.00
2022-11-30T09:38:13.004Z,1.92
2022-11-30T09:40:42.613Z,1.95
2022-11-30T09:43:35.771Z,1.73
2022-11-30T09:46:07.516Z,2.23
2022-11-30T09:48:43.178Z,2.38
2022-11-30T09:51:18.344Z,1.83
2022-11-30T09:53:53.572Z,2.00
2022-11-30T09:56:27.248Z,1.90
2022-11-30T09:59:04.239Z,2.22
2022-11-30T10:01:37.638Z,2.13
2022-11-30T10:04:10.298Z,2.28
2022-11-30T10:06:51.351Z,2.22
2022-11-30T10:10:02.956Z,2.67
2022-11-30T10:12:37.744Z,2.10
2022-11-30T10:15:25.717Z,2.17
2022-11-30T10:17:56.800Z,2.72
2022-11-30T10:21:13.921Z,2.67
2022-11-30T10:23:59.205Z,2.33
2022-11-30T10:26:36.593Z,2.50
2022-11-30T10:29:06.201Z,2.60
2022-11-30T10:31:38.807Z,2.95
2022-11-30T10:34:35.792Z,2.70
2022-11-30T10:37:06.039Z,2.72
2022-11-30T10:40:02.533Z,2.70
2022-11-30T10:42:46.930Z,3.05
2022-11-30T10:45:23.731Z,2.95
2022-11-30T10:47:56.230Z,2.63
2022-11-30T10:50:29.738Z,2.90
2022-11-30T10:55:32.006Z,2.85
2022-11-30T10:58:10.935Z,2.90
2022-11-30T11:00:41.098Z,3.08
2022-11-30T11:03:27.216Z,3.03
2022-11-30T11:06:22.470Z,3.05
2022-11-30T11:08:52.720Z,3.08
2022-11-30T11:11:39.459Z,3.90
2022-11-30T11:14:27.540Z,4.03
2022-11-30T11:16:58.483Z,4.72
2022-11-30T11:19:36.710Z,4.50
2022-11-30T11:22:21.119Z,4.75
2022-11-30T11:24:51.645Z,4.97
2022-11-30T11:27:25.940Z,5.65
2022-11-30T11:30:13.790Z,5.43
2022-11-30T11:32:43.930Z,5.45
2022-11-30T11:36:09.279Z,5.53
2022-11-30T11:38:46.588Z,6.63
2022-11-30T11:41:48.607Z,6.97
2022-11-30T11:44:22.814Z,6.75
2022-11-30T11:47:07.955Z,7.03
2022-11-30T11:49:38.928Z,7.13
2022-11-30T11:52:14.697Z,7.13
2022-11-30T11:54:44.653Z,5.70
2022-11-30T11:57:15.573Z,7.18
2022-11-30T12:00:15.689Z,7.32
2022-11-30T12:03:16.081Z,7.18
2022-11-30T12:06:16.239Z,6.63
2022-11-30T12:09:08.439Z,5.97
2022-11-30T12:11:48.570Z,6.45
2022-11-30T12:14:19.875Z,5.40
2022-11-30T12:17:06.050Z,6.18
2022-11-30T12:19:41.418Z,6.78
2022-11-30T12:22:42.344Z,6.90
2022-11-30T12:25:29.326Z,5.57
2022-11-30T12:28:07.477Z,6.60
2022-11-30T12:30:51.861Z,6.25
2022-11-30T12:33:48.751Z,5.28
2022-11-30T12:36:42.779Z,5.90
2022-11-30T12:39:36.981Z,5.60
2022-11-30T12:44:52.465Z,5.47
2022-11-30T12:48:10.277Z,5.65
2022-11-30T12:50:48.458Z,5.00
2022-11-30T12:53:30.561Z,5.78
2022-11-30T12:56:21.010Z,4.72
2022-11-30T12:59:03.821Z,4.82
2022-11-30T13:02:09.997Z,4.35
2022-11-30T13:04:57.913Z,4.78
2022-11-30T13:07:28.558Z,4.65
2022-11-30T13:10:29.509Z,5.28
2022-11-30T13:13:00.597Z,4.30
2022-11-30T13:15:31.927Z,4.90
2022-11-30T13:18:02.626Z,4.55
2022-11-30T13:20:42.836Z,4.57
2022-11-30T13:23:20.605Z,4.75
2022-11-30T13:26:21.619Z,5.47
2022-11-30T13:29:16.451Z,4.53
2022-11-30T13:31:58.662Z,4.07
2022-11-30T13:34:29.941Z,4.10
2022-11-30T13:37:27.189Z,3.90
2022-11-30T13:40:01.319Z,4.32
2022-11-30T13:42:37.091Z,4.10
2022-11-30T13:45:15.945Z,3.95
2022-11-30T13:47:55.837Z,4.60
2022-11-30T13:50:33.172Z,4.45
2022-11-30T13:53:03.379Z,4.80
2022-11-30T13:55:36.786Z,3.85
2022-11-30T13:58:12.933Z,4.55
2022-11-30T14:00:43.795Z,4.20
2022-11-30T14:03:26.637Z,4.50
2022-11-30T14:05:56.721Z,4.32
2022-11-30T14:08:26.797Z,4.53
2022-11-30T14:11:18.588Z,4.03
2022-11-30T14:13:49.048Z,4.68
2022-11-30T14:16:30.701Z,5.28
2022-11-30T14:19:00.751Z,4.90
2022-11-30T14:21:34.746Z,4.95
2022-11-30T14:24:25.152Z,5.57
2022-11-30T14:26:54.795Z,5.72
2022-11-30T14:29:30.261Z,6.05
2022-11-30T14:32:07.692Z,5.63
2022-11-30T14:34:40.794Z,5.97
2022-11-30T14:37:33.017Z,5.85
2022-11-30T14:40:07.607Z,6.43
2022-11-30T14:42:37.840Z,6.78
2022-11-30T14:45:20.774Z,7.43
2022-11-30T14:47:53.884Z,7.00
2022-11-30T14:50:27.355Z,7.00
2022-11-30T14:55:49.935Z,6.30
2022-11-30T14:58:28.391Z,7.00
2022-11-30T15:00:58.606Z,7.30
2022-11-30T15:03:32.604Z,7.55
2022-11-30T15:06:05.428Z,8.20
2022-11-30T15:08:41.975Z,8.13
2022-11-30T15:11:13.410Z,7.95
2022-11-30T15:13:45.196Z,7.47
2022-11-30T15:16:22.635Z,7.90
2022-11-30T15:18:53.233Z,8.95
2022-11-30T15:21:24.703Z,8.27
2022-11-30T15:23:58.258Z,8.60
2022-11-30T15:29:26.017Z,8.60
2022-11-30T15:31:56.339Z,8.65
2022-11-30T15:34:57.054Z,8.70
2022-11-30T15:37:32.206Z,8.70
2022-11-30T15:40:03.050Z,9.48
2022-11-30T15:42:40.616Z,9.63
2022-11-30T15:45:20.882Z,8.82
2022-11-30T15:47:50.728Z,9.45
2022-11-30T15:50:30.065Z,9.77
2022-11-30T15:53:22.775Z,9.73
2022-11-30T15:55:57.378Z,9.48
2022-11-30T15:58:27.506Z,9.80
2022-11-30T16:01:11.644Z,10.60
2022-11-30T16:04:00.909Z,10.48
2022-11-30T16:06:32.779Z,9.63
2022-11-30T16:09:25.550Z,9.80
2022-11-30T16:11:57.878Z,9.80
2022-11-30T16:14:27.430Z,10.13
2022-11-30T16:16:57.549Z,10.57
2022-11-30T16:19:27.697Z,10.82
2022-11-30T16:21:57.336Z,11.25
2022-11-30T16:24:26.835Z,10.35
2022-11-30T16:26:56.293Z,11.15
2022-11-30T16:29:25.863Z,10.75
2022-11-30T16:31:55.854Z,10.75
2022-11-30T16:34:25.926Z,11.85
2022-11-30T16:36:55.975Z,11.73
2022-11-30T16:39:25.542Z,12.75
2022-11-30T16:41:55.473Z,11.75
2022-11-30T16:44:25.562Z,11.88
2022-11-30T16:46:55.750Z,12.35
2022-11-30T16:49:25.973Z,12.00
2022-11-30T16:51:55.593Z,12.00
2022-11-30T16:54:25.107Z,12.32
2022-11-30T16:56:55.081Z,13.20
2022-11-30T16:59:25.419Z,11.68
2022-11-30T17:01:55.202Z,12.60
2022-11-30T17:04:27.576Z,12.38
2022-11-30T17:07:02.459Z,11.45
2022-11-30T17:09:35.128Z,12.27
2022-11-30T17:12:05.709Z,13.05
2022-11-30T17:14:35.170Z,12.55
2022-11-30T17:17:04.938Z,11.93
2022-11-30T17:19:35.419Z,11.90
2022-11-30T17:22:05.191Z,12.50
2022-11-30T17:24:35.888Z,13.05
2022-11-30T17:27:06.968Z,12.18
2022-11-30T17:29:36.642Z,11.90
2022-11-30T17:32:06.473Z,12.18
2022-11-30T17:34:36.448Z,12.15
2022-11-30T17:37:06.615Z,11.43
2022-11-30T17:39:36.839Z,12.95
2022-11-30T17:42:06.354Z,12.15
2022-11-30T17:44:35.709Z,12.07
2022-11-30T17:47:05.764Z,11.40
2022-11-30T17:49:35.423Z,12.18
2022-11-30T17:52:05.440Z,12.48
2022-11-30T17:54:35.268Z,11.93
2022-11-30T17:57:05.549Z,11.73
2022-11-30T17:59:35.575Z,11.55
2022-11-30T18:02:06.138Z,12.63
2022-11-30T18:04:36.100Z,12.05
2022-11-30T18:07:06.517Z,11.95
2022-11-30T18:09:40.934Z,11.43
2022-11-30T18:12:13.384Z,11.80
2022-11-30T18:14:43.427Z,12.18
2022-11-30T18:17:13.197Z,11.88
2022-11-30T18:19:43.115Z,11.38
2022-11-30T18:22:13.491Z,11.43
2022-11-30T18:24:43.176Z,11.18
2022-11-30T18:27:12.969Z,11.05
2022-11-30T18:29:42.647Z,11.35
2022-11-30T18:32:12.971Z,11.25
2022-11-30T18:34:43.201Z,11.70
2022-11-30T18:37:12.876Z,11.20
2022-11-30T18:39:42.901Z,11.23
2022-11-30T18:42:12.955Z,10.48
2022-11-30T18:44:42.918Z,11.02
2022-11-30T18:47:13.036Z,11.30
2022-11-30T18:49:43.028Z,11.05
2022-11-30T18:52:13.020Z,10.40
2022-11-30T18:54:42.663Z,10.50
2022-11-30T18:57:12.122Z,9.98
2022-11-30T18:59:41.564Z,10.50
2022-11-30T19:02:14.065Z,11.07
2022-11-30T19:04:44.262Z,11.20
2022-11-30T19:07:14.240Z,10.25
2022-11-30T19:09:43.806Z,9.73
2022-11-30T19:12:13.670Z,10.98
2022-11-30T19:14:46.575Z,10.15
2022-11-30T19:17:17.079Z,11.27
2022-11-30T19:19:46.859Z,10.25
2022-11-30T19:22:17.072Z,10.65
2022-11-30T19:24:47.359Z,10.30
2022-11-30T19:27:17.131Z,9.93
2022-11-30T19:29:47.036Z,10.27
2022-11-30T19:32:19.010Z,10.05
2022-11-30T19:34:49.938Z,9.50
2022-11-30T19:37:20.587Z,9.60
2022-11-30T19:39:50.116Z,9.27
2022-11-30T19:42:19.845Z,10.05
2022-11-30T19:44:50.037Z,9.57
2022-11-30T19:47:20.231Z,9.60
2022-11-30T19:49:49.706Z,9.27
2022-11-30T19:52:21.524Z,9.07
2022-11-30T19:54:51.064Z,8.63
2022-11-30T19:57:21.585Z,8.45
2022-11-30T19:59:51.142Z,9.55
2022-11-30T20:02:21.387Z,9.63
2022-11-30T20:04:51.454Z,8.85
2022-11-30T20:07:21.475Z,8.50
2022-11-30T20:09:51.708Z,8.65
2022-11-30T20:12:21.956Z,8.82
2022-11-30T20:14:51.539Z,8.32
2022-11-30T20:17:21.508Z,8.30
2022-11-30T20:19:51.112Z,8.43
2022-11-30T20:22:21.117Z,8.32
2022-11-30T20:24:51.697Z,8.50
2022-11-30T20:27:25.370Z,9.13
2022-11-30T20:32:25.128Z,8.02
2022-11-30T20:34:55.217Z,7.70
2022-11-30T20:37:25.163Z,8.27
2022-11-30T20:39:55.166Z,7.50
2022-11-30T20:42:25.313Z,7.90
2022-11-30T20:44:55.387Z,7.80
2022-11-30T20:47:24.971Z,7.72
2022-11-30T20:49:54.908Z,7.65
2022-11-30T20:52:24.888Z,7.57
2022-11-30T20:54:55.073Z,7.30
2022-11-30T20:57:25.080Z,7.63
2022-11-30T20:59:55.093Z,7.70
2022-11-30T21:02:25.059Z,7.60
2022-11-30T21:04:55.742Z,7.70
2022-11-30T21:07:25.871Z,7.25
2022-11-30T21:09:56.232Z,6.95
2022-11-30T21:12:25.817Z,7.07
2022-11-30T21:14:55.321Z,7.28
2022-11-30T21:17:25.466Z,7.63
2022-11-30T21:19:55.128Z,7.32
2022-11-30T21:22:25.097Z,6.82
2022-11-30T21:24:55.453Z,7.35
2022-11-30T21:27:25.619Z,6.60
2022-11-30T21:29:55.685Z,6.95
2022-11-30T21:32:25.244Z,6.47
2022-11-30T21:34:54.683Z,6.85
2022-11-30T21:37:24.697Z,6.63
2022-11-30T21:39:54.258Z,6.40
2022-11-30T21:42:26.490Z,6.25
2022-11-30T21:44:56.034Z,6.00
2022-11-30T21:47:25.564Z,7.07
2022-11-30T21:49:57.473Z,6.57
2022-11-30T21:52:27.562Z,5.97
2022-11-30T21:54:57.492Z,5.80
2022-11-30T21:57:27.054Z,6.20
2022-11-30T21:59:56.500Z,6.47
2022-11-30T22:02:26.083Z,6.13
2022-11-30T22:04:55.569Z,6.03
2022-11-30T22:07:32.634Z,6.00
2022-11-30T22:10:02.914Z,5.60
2022-11-30T22:12:33.516Z,6.05
2022-11-30T22:15:03.060Z,6.10
2022-11-30T22:17:32.518Z,5.95
2022-11-30T22:20:02.543Z,5.90
2022-11-30T22:22:32.152Z,6.57
2022-11-30T22:25:02.039Z,5.63
2022-11-30T22:27:32.054Z,5.57
2022-11-30T22:30:01.563Z,6.20
2022-11-30T22:32:31.023Z,5.20
2022-11-30T22:35:00.957Z,5.90
2022-11-30T22:37:31.029Z,5.68
2022-11-30T22:40:01.037Z,5.47
2022-11-30T22:42:30.614Z,5.70
2022-11-30T22:45:00.578Z,4.85
2022-11-30T22:47:30.249Z,5.70
2022-11-30T22:49:59.674Z,5.63
2022-11-30T22:53:00.970Z,5.70
2022-11-30T22:55:18.879Z,5.80
2022-11-30T22:57:49.121Z,5.82
2022-11-30T23:00:19.316Z,6.18
2022-11-30T23:02:50.672Z,5.55
2022-11-30T23:05:21.008Z,5.97
2022-11-30T23:07:50.520Z,5.35
2022-11-30T23:10:20.114Z,5.65
2022-11-30T23:12:59.740Z,5.45
2022-11-30T23:15:30.271Z,5.45
2022-11-30T23:18:00.224Z,5.47
2022-11-30T23:20:29.762Z,6.18
2022-11-30T23:23:00.076Z,5.30
2022-11-30T23:25:30.299Z,5.65
2022-11-30T23:28:00.462Z,5.78
2022-11-30T23:30:30.665Z,5.53
2022-11-30T23:33:00.539Z,5.93
2022-11-30T23:35:29.956Z,5.28
2022-11-30T23:37:59.448Z,6.25
2022-11-30T23:40:28.927Z,5.70
2022-11-30T23:42:58.304Z,5.40
2022-11-30T23:45:27.734Z,5.72
2022-11-30T23:47:57.635Z,5.32
2022-11-30T23:50:27.171Z,5.88
2022-11-30T23:52:56.611Z,5.60
2022-11-30T23:55:26.106Z,5.75
2022-11-30T23:57:55.742Z,6.82
